Time;durP1;ratioP1;P1;durP2;ratioP2;P2;SDS_P1;SDS_P2;PMS_P1;PMS_P2;Temp;Humidity;BMP_temperature;BMP_pressure;BME280_temperature;BME280_humidity;BME280_pressure;Samples;Min_cycle;Max_cycle;Signal;HPM_P1;HPM_P2
2024/02/27 00:01:49;;;;;;;2.37;1.57;;;;;;;3.12;100.00;96776.50;6277451;28;20737;-48
2024/02/27 00:04:51;;;;;;;3.23;1.27;;;;;;;2.69;100.00;96787.75;6273202;28;20203;-49
2024/02/27 00:07:53;;;;;;;7.63;3.57;;;;;;;2.70;100.00;96790.16;6285408;28;20202;-49
2024/02/27 00:10:55;;;;;;;11.60;6.03;;;;;;;2.95;100.00;96799.88;6278324;28;20691;-51
2024/02/27 00:13:58;;;;;;;23.47;12.50;;;;;;;2.88;100.00;96804.41;6278331;28;20200;-50
2024/02/27 00:17:00;;;;;;;14.47;7.60;;;;;;;3.09;100.00;96811.91;6262124;28;20193;-48
2024/02/27 00:20:03;;;;;;;6.83;4.17;;;;;;;2.93;100.00;96815.09;6283887;28;20227;-49
2024/02/27 00:23:05;;;;;;;6.27;2.70;;;;;;;2.95;100.00;96813.84;6285086;28;20342;-52
2024/02/27 00:26:07;;;;;;;5.10;2.40;;;;;;;3.21;100.00;96818.09;6281321;28;20196;-48
2024/02/27 00:29:10;;;;;;;5.10;1.90;;;;;;;3.08;100.00;96823.47;6270469;28;20191;-51
2024/02/27 00:32:12;;;;;;;3.90;1.50;;;;;;;3.11;100.00;96812.53;6286356;28;20690;-49
2024/02/27 00:35:14;;;;;;;2.10;1.17;;;;;;;3.15;100.00;96815.50;6283246;28;20187;-51
2024/02/27 00:38:16;;;;;;;2.20;1.20;;;;;;;3.03;100.00;96818.84;6279364;28;20699;-51
2024/02/27 00:41:18;;;;;;;1.27;0.70;;;;;;;3.11;100.00;96820.41;6284624;28;20438;-49
2024/02/27 00:44:20;;;;;;;0.87;0.80;;;;;;;3.22;100.00;96826.81;6266233;28;20207;-51
2024/02/27 00:47:23;;;;;;;1.23;0.90;;;;;;;3.20;100.00;96826.19;6284064;28;20202;-52
2024/02/27 00:50:26;;;;;;;1.83;0.80;;;;;;;3.33;100.00;96826.88;6290661;28;20857;-52
2024/02/27 00:53:28;;;;;;;1.33;1.07;;;;;;;3.26;100.00;96841.94;6288993;28;20330;-52
2024/02/27 00:56:31;;;;;;;3.03;0.90;;;;;;;3.08;100.00;96836.63;6273738;28;20203;-53
2024/02/27 00:59:33;;;;;;;2.70;0.80;;;;;;;3.00;100.00;96836.88;6265898;28;20215;-51
2024/02/27 01:02:36;;;;;;;0.93;0.77;;;;;;;3.06;100.00;96833.41;6289074;28;20224;-49
2024/02/27 01:05:38;;;;;;;1.27;0.80;;;;;;;3.27;100.00;96845.38;6281881;28;20199;-49
2024/02/27 01:08:41;;;;;;;0.73;0.63;;;;;;;3.34;100.00;96840.84;6284844;28;20266;-50
2024/02/27 01:11:43;;;;;;;1.00;0.90;;;;;;;3.23;100.00;96834.47;6285929;28;20210;-50
2024/02/27 01:14:46;;;;;;;0.90;0.70;;;;;;;3.44;99.35;96843.00;6282799;28;20205;-53
2024/02/27 01:17:48;;;;;;;2.20;0.80;;;;;;;3.10;100.00;96845.09;6289972;28;20328;-48
2024/02/27 01:20:50;;;;;;;3.73;0.80;;;;;;;3.59;99.23;96853.97;6292313;28;20719;-50
2024/02/27 01:23:52;;;;;;;1.47;1.20;;;;;;;3.20;99.40;96853.34;6268128;28;20206;-51
2024/02/27 01:26:54;;;;;;;1.53;0.70;;;;;;;3.20;99.04;96861.25;6272255;28;20214;-50
2024/02/27 01:29:57;;;;;;;2.53;0.90;;;;;;;2.89;100.00;96827.84;6271172;28;20682;-51
2024/02/27 01:32:59;;;;;;;2.00;0.80;;;;;;;3.09;100.00;96854.03;6285072;28;20246;-50
2024/02/27 01:36:02;;;;;;;4.67;0.90;;;;;;;2.83;100.00;96847.13;6282472;28;20228;-53
2024/02/27 01:39:04;;;;;;;2.70;1.07;;;;;;;2.82;100.00;96848.97;6281414;28;20289;-49
2024/02/27 01:42:06;;;;;;;1.93;0.93;;;;;;;2.79;100.00;96864.34;6311781;28;20244;-50
2024/02/27 01:45:18;;;;;;;1.67;0.70;;;;;;;2.79;100.00;96866.97;6304220;28;20210;-51
2024/02/27 01:48:21;;;;;;;2.10;0.70;;;;;;;2.97;100.00;96861.81;6298450;28;20194;-52
2024/02/27 01:51:24;;;;;;;1.27;0.70;;;;;;;3.10;100.00;96874.88;6308110;28;20202;-52
2024/02/27 01:54:26;;;;;;;0.97;0.70;;;;;;;3.06;100.00;96871.06;6302126;28;20197;-51
2024/02/27 01:57:28;;;;;;;1.63;0.80;;;;;;;2.97;100.00;96869.69;6301300;28;20702;-52
2024/02/27 02:00:31;;;;;;;1.37;0.70;;;;;;;3.11;100.00;96870.41;6307058;28;20243;-52
2024/02/27 02:03:37;;;;;;;1.37;0.70;;;;;;;3.08;100.00;96871.63;6305223;28;20218;-51
2024/02/27 02:06:41;;;;;;;1.33;0.80;;;;;;;2.70;100.00;96873.50;6306781;28;20669;-51
2024/02/27 02:09:44;;;;;;;0.73;0.60;;;;;;;2.84;100.00;96882.94;6304915;28;20194;-51
2024/02/27 02:12:47;;;;;;;2.50;0.80;;;;;;;2.71;100.00;96888.25;6306886;28;20193;-50
2024/02/27 02:15:50;;;;;;;1.00;0.77;;;;;;;2.84;100.00;96886.38;6316662;28;20208;-50
2024/02/27 02:18:52;;;;;;;2.27;0.97;;;;;;;2.48;100.00;96891.44;6295227;28;20260;-52
2024/02/27 02:21:56;;;;;;;2.43;1.00;;;;;;;2.29;100.00;96891.31;6312096;28;20235;-52
2024/02/27 02:24:59;;;;;;;1.30;1.00;;;;;;;2.37;100.00;96892.09;6304608;28;20788;-52
2024/02/27 02:28:01;;;;;;;6.63;1.10;;;;;;;2.50;100.00;96892.81;6307118;28;20571;-52
2024/02/27 02:31:03;;;;;;;4.03;1.13;;;;;;;2.53;100.00;96896.88;6307143;28;20575;-50
2024/02/27 02:34:05;;;;;;;2.40;0.93;;;;;;;2.84;99.05;96904.78;6302793;28;20585;-48
2024/02/27 02:37:08;;;;;;;0.60;0.50;;;;;;;2.72;100.00;96905.69;6305930;28;20189;-53
2024/02/27 02:40:10;;;;;;;5.63;0.90;;;;;;;2.91;100.00;96912.66;6312730;28;20673;-49
2024/02/27 02:43:13;;;;;;;0.70;0.50;;;;;;;2.54;100.00;96901.09;6315548;28;20246;-50
2024/02/27 02:46:15;;;;;;;1.63;0.90;;;;;;;2.48;100.00;96902.75;6297600;28;20198;-49
2024/02/27 02:49:17;;;;;;;1.47;0.70;;;;;;;2.68;99.54;96899.22;6308727;28;20591;-51
2024/02/27 02:52:19;;;;;;;2.50;1.33;;;;;;;2.47;99.65;96910.84;6312463;28;20193;-51
2024/02/27 02:55:22;;;;;;;1.40;0.60;;;;;;;2.26;100.00;96914.56;6308759;28;20200;-50
2024/02/27 02:58:24;;;;;;;2.47;1.90;;;;;;;2.14;100.00;96913.59;6307146;28;20212;-52
2024/02/27 03:01:26;;;;;;;0.80;0.70;;;;;;;2.14;100.00;96916.22;6306763;28;20204;-50
2024/02/27 03:04:28;;;;;;;4.30;0.83;;;;;;;1.98;100.00;96920.13;6306972;28;20563;-50
2024/02/27 03:07:31;;;;;;;1.03;0.90;;;;;;;1.92;100.00;96915.66;6293445;28;20226;-51
2024/02/27 03:10:33;;;;;;;1.47;1.10;;;;;;;1.83;100.00;96922.19;6313214;28;20204;-49
2024/02/27 03:13:35;;;;;;;2.80;0.83;;;;;;;1.61;100.00;96925.00;6309036;28;20215;-49
2024/02/27 03:16:37;;;;;;;1.27;1.10;;;;;;;1.55;100.00;96928.44;6314903;28;20197;-51
2024/02/27 03:19:39;;;;;;;1.20;1.10;;;;;;;1.59;100.00;96939.38;6309803;28;20671;-48
2024/02/27 03:22:42;;;;;;;1.50;1.20;;;;;;;1.64;100.00;96937.75;6297288;28;20192;-52
2024/02/27 03:25:44;;;;;;;2.13;0.80;;;;;;;1.91;100.00;96929.81;6304012;28;20209;-48
2024/02/27 03:28:46;;;;;;;2.23;0.90;;;;;;;1.73;100.00;96933.09;6303341;28;20576;-50
2024/02/27 03:31:48;;;;;;;3.63;1.00;;;;;;;1.94;100.00;96927.59;6306963;28;20294;-50
2024/02/27 03:34:50;;;;;;;5.17;1.10;;;;;;;1.67;100.00;96932.06;6292253;28;20196;-53
2024/02/27 03:37:52;;;;;;;3.13;0.90;;;;;;;1.44;100.00;96935.13;6272896;28;20272;-49
2024/02/27 03:40:55;;;;;;;2.37;0.93;;;;;;;1.70;100.00;96934.28;6302798;28;20650;-48
2024/02/27 03:43:57;;;;;;;1.43;1.00;;;;;;;1.77;100.00;96943.00;6267045;28;20193;-49
2024/02/27 03:46:59;;;;;;;1.00;0.90;;;;;;;1.86;100.00;96948.81;6276885;28;20579;-48
2024/02/27 03:50:01;;;;;;;2.90;0.90;;;;;;;1.50;100.00;96941.38;6279217;28;20223;-52
2024/02/27 03:53:03;;;;;;;2.17;0.97;;;;;;;1.44;100.00;96955.31;6277203;28;20204;-50
2024/02/27 03:56:06;;;;;;;1.47;1.13;;;;;;;1.59;100.00;96953.28;6278897;28;20219;-51
2024/02/27 03:59:10;;;;;;;2.40;1.00;;;;;;;1.37;100.00;96951.88;6265274;28;20704;-49
2024/02/27 04:02:12;;;;;;;2.27;1.53;;;;;;;1.36;100.00;96952.88;6282695;28;20192;-49
2024/02/27 04:05:14;;;;;;;6.03;2.97;;;;;;;1.34;100.00;96949.66;6280478;28;20199;-50
2024/02/27 04:08:17;;;;;;;14.47;9.30;;;;;;;1.41;100.00;96953.88;6287111;28;20196;-51
2024/02/27 04:11:21;;;;;;;8.17;4.90;;;;;;;1.46;100.00;96961.16;6286516;28;20230;-53
2024/02/27 04:14:23;;;;;;;3.23;2.37;;;;;;;1.45;100.00;96964.81;6288843;28;20206;-53
2024/02/27 04:17:25;;;;;;;9.63;2.47;;;;;;;1.55;100.00;96960.75;6284527;28;20566;-50
2024/02/27 04:20:27;;;;;;;2.67;1.83;;;;;;;1.38;100.00;96946.44;6263807;28;20290;-53
2024/02/27 04:23:30;;;;;;;1.10;0.93;;;;;;;1.23;100.00;96953.66;6285196;28;20885;-49
2024/02/27 04:26:32;;;;;;;1.07;0.83;;;;;;;1.42;100.00;96958.13;6288072;28;20200;-50
2024/02/27 04:29:34;;;;;;;0.60;0.60;;;;;;;1.54;100.00;96964.41;6280824;28;20202;-50
2024/02/27 04:32:36;;;;;;;1.40;1.10;;;;;;;1.31;100.00;96953.47;6289380;28;20204;-48
2024/02/27 04:35:38;;;;;;;1.97;0.90;;;;;;;1.25;100.00;96956.91;6280828;28;20192;-48
2024/02/27 04:38:43;;;;;;;3.30;0.70;;;;;;;1.37;100.00;96960.53;6284246;28;20218;-49
2024/02/27 04:41:45;;;;;;;1.43;0.70;;;;;;;1.26;100.00;96967.19;6304729;28;20741;-49
2024/02/27 04:44:47;;;;;;;0.80;0.70;;;;;;;1.33;100.00;96963.78;6316238;28;20202;-49
2024/02/27 04:47:50;;;;;;;0.70;0.60;;;;;;;1.28;100.00;96949.47;6334677;28;20203;-50
2024/02/27 04:50:52;;;;;;;2.23;0.80;;;;;;;1.28;100.00;96969.63;6333371;28;20193;-50
2024/02/27 04:53:54;;;;;;;1.37;0.80;;;;;;;1.23;100.00;96974.66;6331229;28;20714;-51
2024/02/27 04:56:59;;;;;;;1.40;0.90;;;;;;;1.20;100.00;96969.81;6322220;28;20560;-53
2024/02/27 05:00:04;;;;;;;0.80;0.80;;;;;;;1.00;100.00;96954.88;6342779;28;20689;-51
2024/02/27 05:03:06;;;;;;;1.77;0.80;;;;;;;1.16;100.00;96974.66;6340570;28;20559;-53
2024/02/27 05:06:08;;;;;;;2.03;1.20;;;;;;;1.19;100.00;96979.50;6336102;28;20655;-51
2024/02/27 05:09:10;;;;;;;3.03;1.30;;;;;;;1.40;100.00;96977.72;6338327;28;20191;-47
2024/02/27 05:12:12;;;;;;;6.53;4.37;;;;;;;1.71;100.00;96985.78;6330676;28;20632;-50
2024/02/27 05:15:15;;;;;;;6.73;3.20;;;;;;;1.73;100.00;96985.59;6335483;28;20310;-52
2024/02/27 05:18:17;;;;;;;11.43;5.83;;;;;;;1.36;100.00;96981.75;6331545;28;20186;-51
2024/02/27 05:21:20;;;;;;;10.33;5.90;;;;;;;1.16;100.00;96963.34;6336016;28;20272;-50
2024/02/27 05:24:22;;;;;;;21.60;11.83;;;;;;;1.34;100.00;96992.44;6337855;28;20186;-51
2024/02/27 05:27:24;;;;;;;25.47;16.80;;;;;;;1.38;100.00;96990.22;6309355;28;20290;-51
2024/02/27 05:30:27;;;;;;;12.50;7.70;;;;;;;1.44;100.00;96995.50;6332607;28;20223;-49
2024/02/27 05:33:29;;;;;;;11.67;6.70;;;;;;;1.65;100.00;96991.06;6331471;28;20266;-49
2024/02/27 05:36:32;;;;;;;7.43;5.00;;;;;;;1.43;100.00;96991.25;6340143;28;20192;-51
2024/02/27 05:39:34;;;;;;;4.93;3.07;;;;;;;1.44;100.00;96989.44;6335529;28;20309;-49
2024/02/27 05:42:36;;;;;;;3.13;2.60;;;;;;;1.55;100.00;96994.88;6331725;28;20228;-51
2024/02/27 05:45:38;;;;;;;1.90;1.40;;;;;;;1.49;100.00;97006.19;6333602;28;20615;-51
2024/02/27 05:48:41;;;;;;;2.00;1.50;;;;;;;1.54;100.00;97002.97;6329294;28;20191;-51
2024/02/27 05:51:44;;;;;;;2.03;1.23;;;;;;;1.36;100.00;97008.78;6316851;28;20403;-51
2024/02/27 05:54:46;;;;;;;1.20;0.90;;;;;;;1.27;100.00;97026.53;6328120;28;20203;-52
2024/02/27 05:57:48;;;;;;;2.13;0.97;;;;;;;1.51;100.00;97026.97;6329906;28;20192;-53
2024/02/27 06:00:51;;;;;;;1.13;0.80;;;;;;;1.16;100.00;96992.22;6328827;28;20345;-47
2024/02/27 06:03:53;;;;;;;0.80;0.80;;;;;;;1.43;100.00;97027.16;6339694;28;20574;-51
2024/02/27 06:06:55;;;;;;;1.37;0.73;;;;;;;1.85;100.00;97027.81;6331251;28;20190;-52
2024/02/27 06:09:58;;;;;;;1.43;1.00;;;;;;;1.24;100.00;97000.72;6333244;28;20206;-49
2024/02/27 06:13:00;;;;;;;1.73;0.87;;;;;;;1.49;100.00;97036.88;6333091;28;20199;-52
2024/02/27 06:16:02;;;;;;;2.07;1.10;;;;;;;1.62;100.00;97039.50;6332042;28;20193;-53
2024/02/27 06:19:04;;;;;;;2.27;0.90;;;;;;;1.75;100.00;97042.16;6330928;28;20415;-51
2024/02/27 06:22:19;;;;;;;1.10;0.80;;;;;;;1.86;100.00;97032.03;6333292;28;20848;-48
2024/02/27 06:25:21;;;;;;;1.30;0.80;;;;;;;1.77;100.00;97045.41;6331086;28;20723;-49
2024/02/27 06:28:24;;;;;;;2.30;0.80;;;;;;;2.11;100.00;97056.69;6328611;28;20189;-52
2024/02/27 06:31:26;;;;;;;1.90;0.90;;;;;;;2.17;100.00;97049.81;6325056;28;20590;-47
2024/02/27 06:34:28;;;;;;;1.37;1.10;;;;;;;2.03;100.00;97056.91;6333282;28;20700;-50
2024/02/27 06:37:30;;;;;;;2.00;1.00;;;;;;;2.06;100.00;97062.53;6329036;28;20203;-50
2024/02/27 06:40:33;;;;;;;2.33;0.80;;;;;;;2.49;100.00;97067.34;6332575;28;20703;-52
2024/02/27 06:43:35;;;;;;;0.80;0.77;;;;;;;2.47;100.00;97071.22;6332351;28;20187;-48
2024/02/27 06:46:37;;;;;;;1.17;0.90;;;;;;;2.53;100.00;97080.91;6326951;28;20184;-49
2024/02/27 06:49:39;;;;;;;2.53;1.00;;;;;;;2.48;100.00;97068.38;6332942;28;20597;-49
2024/02/27 06:52:41;;;;;;;1.77;1.20;;;;;;;2.65;100.00;97075.81;6340443;28;20199;-50
2024/02/27 06:55:43;;;;;;;1.63;0.93;;;;;;;2.59;100.00;97080.06;6327727;28;20659;-51
2024/02/27 06:58:47;;;;;;;1.20;0.87;;;;;;;2.66;100.00;97074.78;6336007;28;20582;-50
2024/02/27 07:01:49;;;;;;;1.37;0.90;;;;;;;2.71;100.00;97081.06;6325572;28;20706;-51
2024/02/27 07:04:51;;;;;;;1.20;0.80;;;;;;;2.75;100.00;97079.63;6330640;28;20205;-51
2024/02/27 07:07:53;;;;;;;1.67;0.90;;;;;;;2.76;100.00;97081.25;6333637;28;20718;-53
2024/02/27 07:10:55;;;;;;;0.87;0.60;;;;;;;2.90;100.00;97089.09;6333301;28;20589;-52
2024/02/27 07:13:57;;;;;;;3.60;0.67;;;;;;;2.99;100.00;97095.75;6336414;28;21107;-51
2024/02/27 07:17:00;;;;;;;2.00;0.83;;;;;;;2.90;100.00;97071.47;6336251;28;20189;-52
2024/02/27 07:20:03;;;;;;;1.13;0.70;;;;;;;3.11;100.00;97099.34;6326585;28;20195;-48
2024/02/27 07:23:05;;;;;;;0.83;0.70;;;;;;;3.46;100.00;97099.00;6324869;28;20194;-51
2024/02/27 07:26:08;;;;;;;1.87;0.80;;;;;;;3.43;100.00;97100.19;6337455;28;20652;-49
2024/02/27 07:29:12;;;;;;;2.13;0.93;;;;;;;3.43;100.00;97096.78;6317844;28;20186;-47
2024/02/27 07:32:14;;;;;;;1.00;0.70;;;;;;;3.50;100.00;97103.63;6326091;28;20731;-53
2024/02/27 07:35:16;;;;;;;1.40;0.57;;;;;;;3.59;100.00;97099.69;6329968;28;20693;-50
2024/02/27 07:38:18;;;;;;;0.90;0.60;;;;;;;3.61;100.00;97104.78;6332375;28;20224;-50
2024/02/27 07:41:21;;;;;;;0.90;0.80;;;;;;;3.61;100.00;97091.63;6335912;28;20770;-53
2024/02/27 07:44:23;;;;;;;1.83;0.70;;;;;;;3.63;100.00;97089.56;6329601;28;20671;-48
2024/02/27 07:47:25;;;;;;;1.10;0.60;;;;;;;3.69;100.00;97112.41;6336879;28;20714;-50
2024/02/27 07:50:27;;;;;;;0.53;0.53;;;;;;;3.82;100.00;97099.16;6323472;28;20190;-50
2024/02/27 07:53:29;;;;;;;0.77;0.77;;;;;;;3.88;100.00;97092.22;6319474;28;20578;-52
2024/02/27 07:56:32;;;;;;;0.93;0.60;;;;;;;3.74;100.00;97067.81;6329336;28;20198;-49
2024/02/27 07:59:36;;;;;;;1.60;0.70;;;;;;;3.94;100.00;97074.75;6326046;28;20214;-51
2024/02/27 08:02:38;;;;;;;0.80;0.70;;;;;;;4.26;100.00;97099.25;6330391;28;20194;-50
2024/02/27 08:05:40;;;;;;;4.10;1.10;;;;;;;4.46;100.00;97107.00;6328844;28;20193;-50
2024/02/27 08:08:43;;;;;;;2.90;1.13;;;;;;;4.50;100.00;97102.91;6323278;28;20611;-52
2024/02/27 08:11:45;;;;;;;3.70;1.33;;;;;;;4.64;100.00;97102.56;6329177;28;20201;-51
2024/02/27 08:14:47;;;;;;;2.10;1.40;;;;;;;4.75;100.00;97111.56;6330687;28;20220;-53
2024/02/27 08:17:49;;;;;;;4.17;1.67;;;;;;;4.87;100.00;97114.28;6323254;28;20272;-50
2024/02/27 08:20:51;;;;;;;3.57;1.93;;;;;;;5.04;100.00;97112.69;6334910;28;20217;-50
2024/02/27 08:23:58;;;;;;;2.80;1.87;;;;;;;5.27;100.00;97112.03;6323304;28;20195;-53
2024/02/27 08:27:00;;;;;;;2.80;1.63;;;;;;;5.52;100.00;97121.69;6331647;28;20195;-49
2024/02/27 08:30:08;;;;;;;1.93;1.70;;;;;;;5.93;97.40;97118.28;6327241;28;20179;-47
2024/02/27 08:33:10;;;;;;;3.57;1.37;;;;;;;5.99;96.05;97093.59;6328094;28;20279;-52
2024/02/27 08:36:12;;;;;;;2.80;1.20;;;;;;;6.51;97.23;97128.19;6335324;28;20191;-49
2024/02/27 08:39:15;;;;;;;2.03;1.10;;;;;;;6.73;94.78;97134.50;6332404;28;20194;-51
2024/02/27 08:42:17;;;;;;;3.00;1.50;;;;;;;6.94;92.43;97134.94;6327176;28;20747;-52
2024/02/27 08:45:19;;;;;;;3.87;1.60;;;;;;;7.23;90.80;97138.47;6320127;28;20654;-50
2024/02/27 08:48:21;;;;;;;1.57;1.10;;;;;;;7.59;87.75;97137.34;6337609;28;20201;-49
2024/02/27 08:51:24;;;;;;;2.83;1.80;;;;;;;7.83;89.27;97150.50;6334713;28;20724;-49
2024/02/27 08:54:26;;;;;;;1.80;1.30;;;;;;;8.15;88.72;97146.31;6333296;28;20682;-51
2024/02/27 08:57:28;;;;;;;2.03;1.37;;;;;;;8.43;72.86;97115.50;6334023;28;20193;-48
2024/02/27 09:00:30;;;;;;;1.33;1.10;;;;;;;9.07;78.94;97145.13;6334165;28;20205;-52
2024/02/27 09:03:34;;;;;;;2.63;1.03;;;;;;;9.32;71.45;97154.50;6332135;28;20603;-50
2024/02/27 09:06:41;;;;;;;3.60;1.90;;;;;;;9.54;64.84;97155.28;6330976;28;20185;-52
2024/02/27 09:09:44;;;;;;;2.27;1.43;;;;;;;9.74;67.59;97158.19;6338191;28;20198;-52
2024/02/27 09:12:47;;;;;;;2.77;1.43;;;;;;;9.86;65.92;97147.41;6341582;28;20691;-53
2024/02/27 09:15:49;;;;;;;6.33;2.30;;;;;;;9.88;66.13;97160.47;6341360;28;20659;-49
2024/02/27 09:18:51;;;;;;;3.73;1.67;;;;;;;9.95;68.23;97163.72;6338018;28;20272;-52
2024/02/27 09:21:54;;;;;;;2.07;1.50;;;;;;;10.04;65.71;97159.56;6336164;28;20223;-49
2024/02/27 09:24:57;;;;;;;3.57;1.67;;;;;;;10.31;61.40;97160.38;6332045;28;20255;-53
2024/02/27 09:27:59;;;;;;;1.80;1.20;;;;;;;10.36;61.21;97166.81;6311334;28;20196;-52
2024/02/27 09:31:04;;;;;;;2.50;1.30;;;;;;;10.43;60.47;97160.22;6337271;28;20204;-50
2024/02/27 09:34:09;;;;;;;2.60;1.50;;;;;;;10.56;59.80;97162.47;6341510;28;20197;-51
2024/02/27 09:37:11;;;;;;;4.43;1.97;;;;;;;10.47;59.95;97140.03;6343572;28;20839;-52
2024/02/27 09:40:13;;;;;;;2.13;1.50;;;;;;;10.56;60.82;97169.66;6337429;28;20271;-53
2024/02/27 09:43:22;;;;;;;3.80;2.10;;;;;;;10.52;60.95;97161.38;6339399;28;20266;-52
2024/02/27 09:46:25;;;;;;;4.20;2.20;;;;;;;10.47;62.21;97163.97;6332256;28;20218;-50
2024/02/27 09:49:29;;;;;;;3.20;2.17;;;;;;;10.65;62.21;97164.66;6329233;28;20199;-53
2024/02/27 09:52:48;;;;;;;3.73;2.00;;;;;;;10.62;62.30;97173.16;6331904;28;20729;-52
2024/02/27 09:55:51;;;;;;;3.17;1.90;;;;;;;10.78;62.57;97156.22;6328831;28;20741;-51
2024/02/27 09:58:54;;;;;;;2.27;1.47;;;;;;;11.09;62.17;97162.59;6326884;28;20595;-50
2024/02/27 10:02:05;;;;;;;3.13;1.67;;;;;;;11.15;60.81;97145.56;6340445;28;20204;-51
2024/02/27 10:05:09;;;;;;;2.20;1.33;;;;;;;11.51;59.65;97167.84;6325109;28;20278;-52
2024/02/27 10:08:22;;;;;;;2.67;1.77;;;;;;;11.68;57.80;97165.00;6330725;28;20201;-53
2024/02/27 10:11:24;;;;;;;1.60;1.37;;;;;;;11.80;58.60;97175.44;6306181;28;20194;-50
2024/02/27 10:14:31;;;;;;;4.70;1.97;;;;;;;11.85;58.25;97180.81;6309195;28;20213;-52
2024/02/27 10:17:36;;;;;;;3.07;1.60;;;;;;;12.02;59.09;97183.28;6329302;28;20190;-52
2024/02/27 10:20:43;;;;;;;2.53;1.73;;;;;;;12.12;56.26;97172.66;6333162;28;20290;-52
2024/02/27 10:23:46;;;;;;;2.60;1.60;;;;;;;12.18;56.00;97181.47;6333990;28;20185;-51
2024/02/27 10:26:58;;;;;;;3.87;1.73;;;;;;;12.23;56.21;97182.28;6335393;28;20212;-51
2024/02/27 10:30:00;;;;;;;3.67;1.53;;;;;;;12.31;55.16;97154.22;6315375;28;20194;-49
2024/02/27 10:33:07;;;;;;;2.50;1.60;;;;;;;12.70;55.56;97177.75;6332613;28;20197;-48
2024/02/27 10:36:10;;;;;;;4.30;1.50;;;;;;;12.74;54.40;97170.81;6320764;28;20640;-51
2024/02/27 10:39:12;;;;;;;2.43;1.40;;;;;;;12.80;54.93;97167.88;6320782;28;20186;-51
2024/02/27 10:42:15;;;;;;;3.40;1.50;;;;;;;12.72;55.58;97163.06;6328925;28;20398;-53
2024/02/27 10:45:18;;;;;;;3.43;1.57;;;;;;;12.92;55.04;97172.94;6329672;28;20292;-52
2024/02/27 10:48:20;;;;;;;2.50;1.67;;;;;;;12.86;55.21;97163.34;6330122;28;20276;-53
2024/02/27 10:51:36;;;;;;;2.53;1.73;;;;;;;13.07;55.78;97170.25;6335553;28;20209;-50
2024/02/27 10:54:39;;;;;;;3.43;1.60;;;;;;;13.13;55.82;97166.50;6328554;28;20209;-50
2024/02/27 10:57:42;;;;;;;4.13;1.67;;;;;;;13.12;55.98;97156.88;6332180;28;20703;-51
2024/02/27 11:00:45;;;;;;;4.23;2.00;;;;;;;13.21;56.51;97159.81;6337539;28;20841;-50
2024/02/27 11:03:52;;;;;;;4.90;2.10;;;;;;;13.07;56.54;97146.19;6325678;28;20647;-53
2024/02/27 11:06:57;;;;;;;4.90;2.30;;;;;;;13.20;56.46;97162.72;6326224;28;20670;-51
2024/02/27 11:10:00;;;;;;;3.17;1.77;;;;;;;13.24;57.08;97161.94;6325409;28;20647;-52
2024/02/27 11:13:04;;;;;;;2.50;1.77;;;;;;;13.33;57.10;97160.31;6330170;28;20190;-53
2024/02/27 11:16:11;;;;;;;4.07;2.10;;;;;;;13.38;56.22;97149.59;6328631;28;20205;-52
2024/02/27 11:19:19;;;;;;;2.77;2.00;;;;;;;13.70;55.43;97158.34;6325534;28;20733;-52
2024/02/27 11:22:22;;;;;;;1.90;1.70;;;;;;;13.55;56.30;97151.97;6334406;28;20212;-53
2024/02/27 11:25:25;;;;;;;4.20;1.90;;;;;;;13.94;55.39;97156.63;6301777;28;20205;-51
2024/02/27 11:28:29;;;;;;;2.60;1.77;;;;;;;14.13;54.62;97144.16;6328988;28;20631;-50
2024/02/27 11:31:34;;;;;;;3.47;2.00;;;;;;;14.33;53.89;97153.94;6323001;28;20190;-52
2024/02/27 11:34:36;;;;;;;3.77;2.27;;;;;;;14.36;55.12;97156.06;6337325;28;20595;-50
2024/02/27 11:37:40;;;;;;;3.37;2.30;;;;;;;14.40;53.82;97159.00;6331587;28;20833;-51
2024/02/27 11:40:54;;;;;;;4.87;2.40;;;;;;;14.23;54.85;97147.84;6329273;28;20751;-50
2024/02/27 11:44:00;;;;;;;4.23;2.00;;;;;;;14.32;53.80;97156.91;6326677;28;20194;-53
2024/02/27 11:47:24;;;;;;;4.33;2.13;;;;;;;14.37;54.50;97167.59;6332055;28;20189;-53
2024/02/27 11:50:36;;;;;;;2.70;2.33;;;;;;;14.24;54.91;97165.56;6326244;28;20194;-52
2024/02/27 11:53:39;;;;;;;3.83;2.70;;;;;;;14.26;55.14;97166.06;6331194;28;20194;-52
2024/02/27 11:56:41;;;;;;;5.33;2.50;;;;;;;14.20;55.50;97157.25;6330780;28;20197;-53
2024/02/27 11:59:50;;;;;;;6.03;2.70;;;;;;;14.07;55.96;97161.34;6311891;28;20268;-52
2024/02/27 12:02:52;;;;;;;3.33;2.30;;;;;;;14.08;56.07;97160.25;6330212;28;20279;-53
2024/02/27 12:06:05;;;;;;;5.43;2.47;;;;;;;14.11;56.11;97157.03;6312820;28;20713;-52
2024/02/27 12:09:08;;;;;;;5.87;2.73;;;;;;;14.16;56.15;97154.34;6330128;28;20198;-48
2024/02/27 12:12:10;;;;;;;3.83;2.50;;;;;;;13.98;56.49;97156.84;6326754;28;20518;-51
2024/02/27 12:15:13;;;;;;;2.90;2.37;;;;;;;14.11;56.72;97149.00;6325947;28;20233;-48
2024/02/27 12:18:15;;;;;;;3.97;2.97;;;;;;;14.05;56.55;97147.44;6305236;28;20202;-50
2024/02/27 12:21:30;;;;;;;4.47;2.43;;;;;;;14.24;57.27;97150.28;6337031;28;20689;-49
2024/02/27 12:24:33;;;;;;;2.93;2.30;;;;;;;14.33;56.74;97147.78;6341238;28;20213;-53
2024/02/27 12:27:36;;;;;;;3.63;2.40;;;;;;;14.18;56.55;97136.09;6331176;28;20190;-49
2024/02/27 12:30:47;;;;;;;3.40;2.30;;;;;;;14.49;55.65;97143.16;6340442;28;20190;-53
2024/02/27 12:33:50;;;;;;;2.63;2.07;;;;;;;14.68;54.93;97139.53;6327472;28;20200;-53
2024/02/27 12:36:52;;;;;;;4.10;2.40;;;;;;;14.80;55.47;97122.25;6332376;28;20267;-51
2024/02/27 12:39:55;;;;;;;3.63;2.00;;;;;;;14.95;55.33;97135.53;6333391;28;20207;-50
2024/02/27 12:42:57;;;;;;;6.50;2.53;;;;;;;15.15;54.05;97129.16;6332336;28;20229;-48
2024/02/27 12:46:00;;;;;;;3.37;2.30;;;;;;;15.06;55.00;97134.31;6338201;28;20197;-47
2024/02/27 12:49:02;;;;;;;4.03;2.30;;;;;;;14.95;55.09;97132.84;6344472;28;20202;-53
2024/02/27 12:52:15;;;;;;;3.30;2.50;;;;;;;14.94;54.95;97129.34;6333969;28;20198;-52
2024/02/27 12:55:19;;;;;;;3.87;2.37;;;;;;;14.82;55.83;97138.84;6336508;28;20198;-51
2024/02/27 12:58:23;;;;;;;5.27;2.57;;;;;;;14.56;57.45;97125.66;6339215;28;20181;-53
2024/02/27 13:01:26;;;;;;;2.90;2.30;;;;;;;14.44;58.59;97106.47;6336821;28;20308;-52
2024/02/27 13:04:29;;;;;;;5.33;3.50;;;;;;;14.68;58.34;97131.47;6333637;28;20189;-49
2024/02/27 13:07:31;;;;;;;7.93;2.87;;;;;;;14.51;59.35;97132.97;6334113;28;20192;-49
2024/02/27 13:10:34;;;;;;;4.43;3.13;;;;;;;14.41;59.28;97136.47;6337596;28;20184;-52
2024/02/27 13:13:36;;;;;;;4.57;3.40;;;;;;;14.22;60.90;97133.66;6340603;28;20184;-50
2024/02/27 13:16:38;;;;;;;7.10;3.33;;;;;;;14.25;60.94;97129.66;6331691;28;20772;-51
2024/02/27 13:19:40;;;;;;;3.03;2.73;;;;;;;14.17;61.34;97134.50;6328311;28;20590;-51
2024/02/27 13:22:43;;;;;;;4.33;3.17;;;;;;;13.80;61.44;97100.19;6327576;28;20701;-49
2024/02/27 13:25:50;;;;;;;3.73;2.70;;;;;;;13.96;62.54;97127.69;6333785;28;21069;-48
2024/02/27 13:28:52;;;;;;;5.30;2.80;;;;;;;14.18;61.61;97135.28;6334037;28;20200;-54
2024/02/27 13:31:54;;;;;;;5.10;3.13;;;;;;;13.99;61.55;97126.31;6334554;28;20242;-51
2024/02/27 13:34:57;;;;;;;4.00;2.67;;;;;;;13.93;62.52;97129.00;6333638;28;20194;-50
2024/02/27 13:37:59;;;;;;;3.90;2.33;;;;;;;14.03;61.31;97125.47;6323956;28;20197;-51
2024/02/27 13:41:03;;;;;;;4.97;2.43;;;;;;;13.95;62.30;97120.72;6326943;28;20376;-52
2024/02/27 13:44:05;;;;;;;4.10;2.50;;;;;;;14.12;60.33;97131.84;6316249;28;20753;-51
2024/02/27 13:47:07;;;;;;;3.70;2.43;;;;;;;14.03;60.42;97116.66;6318710;28;20225;-51
2024/02/27 13:50:10;;;;;;;4.77;2.20;;;;;;;13.98;61.24;97116.69;6315565;28;20280;-48
2024/02/27 13:53:14;;;;;;;4.67;2.30;;;;;;;14.04;61.01;97120.91;6313161;28;20206;-53
2024/02/27 13:56:16;;;;;;;2.60;2.20;;;;;;;14.06;60.01;97118.78;6307002;28;20202;-49
2024/02/27 13:59:19;;;;;;;3.00;2.00;;;;;;;14.10;59.68;97119.84;6306293;28;20201;-53
2024/02/27 14:02:21;;;;;;;3.63;2.20;;;;;;;14.11;59.60;97124.91;6304998;28;20947;-51
2024/02/27 14:05:23;;;;;;;3.57;2.17;;;;;;;14.01;60.65;97122.28;6302881;28;20186;-52
2024/02/27 14:08:25;;;;;;;2.03;1.83;;;;;;;14.06;61.05;97121.47;6312675;28;20225;-51
2024/02/27 14:11:27;;;;;;;1.97;1.50;;;;;;;14.16;58.82;97122.19;6316415;28;20195;-52
2024/02/27 14:14:30;;;;;;;2.67;1.40;;;;;;;14.20;57.99;97120.56;6315872;28;20232;-52
2024/02/27 14:17:33;;;;;;;4.50;1.53;;;;;;;14.19;57.10;97121.66;6309173;28;20190;-50
2024/02/27 14:20:37;;;;;;;4.47;1.43;;;;;;;14.23;56.01;97121.88;6302898;28;20222;-52
2024/02/27 14:23:39;;;;;;;2.27;1.40;;;;;;;14.22;55.45;97119.47;6304492;28;20204;-49